»·PEaware :: SWA559 KSLC-KBOI

SWA559 :: KSLC-KBOI

FLIGHT INFORMATION

Flight Status: Arrived
Operator:
Southwest Airlines
More flights by this operator :: More flights under this callsign
Pilot: Max W. (2591)
Aircraft: BOEING 737-200
(B732)
More flights by this aircraft type
Origin: KSLC Salt Lake City Intl
United States
Destination: KBOI Boise Air Terminal/Gowen
United States
More flights between these airports :: More routes between these airports
Route: +SLC4 TCH J15 BOI
File this flight plan on PilotEdge
Remarks:
Altitude:
(Current/Filed)
26,000ft
Speed:
(Current/Filed)
400kts
Departed: 26-Mar-18 04:49 PM
Arrived: 26-Mar-18 05:35 PM
Distance/Time
Traveled:
252nm/0:46
Distance/Time
To Go:
Arrived

Flight Plot

Page will automatically refresh every two minutes.

Flight plan parsing failed; only flown route is shown


Map Options




Map Legend


Flown Route
Filed Route
Departure Airport
Arrival Airport
Navaid (VOR, NDB)
Fix

Horizontal Profiles

Position Reports

Time Latitude Longitude Heading Altitude Ground
Speed
26-Mar-18 16:38 40.786748 -111.978276 313 4236ft 0kts
26-Mar-18 16:39 40.786750 -111.978280 312 4236ft 0kts
26-Mar-18 16:40 40.786671 -111.978168 313 4236ft 2kts
26-Mar-18 16:41 40.786198 -111.977790 16 4236ft 1kts
26-Mar-18 16:42 40.786184 -111.977796 16 4236ft 0kts
26-Mar-18 16:43 40.786357 -111.977479 93 4236ft 4kts
26-Mar-18 16:44 40.783493 -111.976368 173 4236ft 25kts
26-Mar-18 16:45 40.775613 -111.974917 172 4236ft 10kts
26-Mar-18 16:46 40.775293 -111.974861 172 4236ft 0kts
26-Mar-18 16:47 40.775494 -111.973233 357 4236ft 0kts
26-Mar-18 16:48 40.796621 -111.975087 353 5088ft 150kts
26-Mar-18 16:49 40.849870 -111.979004 356 6957ft 238kts
26-Mar-18 16:50 40.915829 -111.983529 356 10776ft 245kts
26-Mar-18 16:51 40.984977 -111.989771 356 14051ft 257kts
26-Mar-18 16:52 41.057375 -112.001069 330 16176ft 298kts
26-Mar-18 16:53 41.117040 -112.088773 310 17943ft 340kts
26-Mar-18 16:54 41.176654 -112.187426 310 20291ft 351kts
26-Mar-18 16:55 41.237944 -112.290271 310 22311ft 361kts
26-Mar-18 16:56 41.300396 -112.396365 310 24069ft 370kts
26-Mar-18 16:57 41.364133 -112.505995 310 25586ft 380kts
26-Mar-18 16:58 41.429883 -112.619797 311 26221ft 406kts
26-Mar-18 16:59 41.500277 -112.740778 310 26215ft 437kts
26-Mar-18 17:00 41.565865 -112.853510 310 26213ft 444kts
26-Mar-18 17:01 41.640371 -112.984978 310 26211ft 445kts
26-Mar-18 17:02 41.715155 -113.115590 318 26218ft 437kts
26-Mar-18 17:03 41.793619 -113.238844 312 26207ft 434kts
26-Mar-18 17:04 41.862257 -113.359172 311 26200ft 430kts
26-Mar-18 17:05 41.933304 -113.486928 311 26204ft 428kts
26-Mar-18 17:06 42.004337 -113.615068 310 26200ft 428kts
26-Mar-18 17:07 42.073120 -113.741654 310 26200ft 427kts
26-Mar-18 17:08 42.142543 -113.866380 311 26216ft 428kts
26-Mar-18 17:09 42.212935 -113.994909 311 26217ft 430kts
26-Mar-18 17:10 42.280693 -114.119626 311 26217ft 431kts
26-Mar-18 17:11 42.351428 -114.250063 311 26219ft 432kts
26-Mar-18 17:12 42.421328 -114.382129 307 26220ft 435kts
26-Mar-18 17:13 42.493882 -114.510574 315 26217ft 429kts
26-Mar-18 17:14 42.572041 -114.632153 315 26219ft 429kts
26-Mar-18 17:15 42.647603 -114.752662 314 26211ft 429kts
26-Mar-18 17:16 42.723180 -114.872148 314 24215ft 404kts
26-Mar-18 17:17 42.795908 -114.987056 313 21133ft 401kts
26-Mar-18 17:18 42.867127 -115.100107 312 19008ft 390kts
26-Mar-18 17:19 42.943473 -115.201657 323 16923ft 381kts
26-Mar-18 17:20 43.018218 -115.301558 314 15021ft 365kts
26-Mar-18 17:21 43.077256 -115.394699 314 14966ft 292kts
26-Mar-18 17:22 43.126566 -115.474568 314 14978ft 267kts
26-Mar-18 17:23 43.174278 -115.552902 313 14990ft 280kts
26-Mar-18 17:24 43.230418 -115.646263 312 11468ft 329kts
26-Mar-18 17:25 43.287837 -115.721592 321 11368ft 260kts
26-Mar-18 17:26 43.340736 -115.783288 321 10317ft 247kts
26-Mar-18 17:27 43.392593 -115.843225 321 9095ft 241kts
26-Mar-18 17:28 43.441649 -115.904256 304 7887ft 239kts
26-Mar-18 17:29 43.474806 -115.981970 302 6985ft 223kts
26-Mar-18 17:30 43.503935 -116.051377 302 6385ft 198kts
26-Mar-18 17:31 43.526564 -116.110767 298 5461ft 157kts
26-Mar-18 17:32 43.543726 -116.160048 299 3896ft 126kts
26-Mar-18 17:33 43.557859 -116.200719 299 2905ft 115kts
26-Mar-18 17:34 43.567326 -116.228223 303 2847ft 26kts
26-Mar-18 17:35 43.568516 -116.228154 104 2848ft 7kts
26-Mar-18 17:36 43.567053 -116.220996 38 2855ft 9kts
26-Mar-18 17:37 43.567353 -116.220793 25 2855ft 0kts
26-Mar-18 17:38 43.567353 -116.220793 25 2855ft 0kts
26-Mar-18 17:39 43.567353 -116.220793 25 2855ft 0kts
26-Mar-18 17:40 43.567353 -116.220793 25 2855ft 0kts
26-Mar-18 17:41 43.567353 -116.220793 25 2855ft 0kts
26-Mar-18 17:42 43.567353 -116.220793 25 2855ft 0kts
26-Mar-18 17:43 43.567353 -116.220793 25 2855ft 0kts

Navigation Log

Ident Type
Flight plan parsing failed, navigation log unavailable